Time;durP1;ratioP1;P1;durP2;ratioP2;P2;SDS_P1;SDS_P2;PMS_P1;PMS_P2;Temp;Humidity;BMP_temperature;BMP_pressure;BME280_temperature;BME280_humidity;BME280_pressure;Samples;Min_cycle;Max_cycle;Signal;HPM_P1;HPM_P2
2021/03/06 00:00:09;;;;;;;14.30;4.20;;;;;;;;;;5019471;28;20051;-67
2021/03/06 00:02:35;;;;;;;9.35;3.55;;;;;;;;;;5021829;28;20304;-67
2021/03/06 00:05:02;;;;;;;12.90;3.63;;;;;;;;;;5018756;28;20026;-67
2021/03/06 00:07:28;;;;;;;14.90;4.07;;;;;;;;;;5029731;28;20037;-67
2021/03/06 00:09:54;;;;;;;12.68;3.25;;;;;;;;;;5019927;28;20432;-67
2021/03/06 00:12:20;;;;;;;15.07;3.97;;;;;;;;;;5030305;28;20040;-67
2021/03/06 00:14:46;;;;;;;15.07;3.70;;;;;;;;;;5028599;28;20037;-67
2021/03/06 00:17:12;;;;;;;11.55;3.17;;;;;;;;;;5027144;28;20065;-67
2021/03/06 00:19:38;;;;;;;15.70;3.78;;;;;;;;;;5009930;28;20100;-67
2021/03/06 00:22:04;;;;;;;6.55;3.08;;;;;;;;;;5011334;28;20100;-67
2021/03/06 00:24:30;;;;;;;10.32;3.00;;;;;;;;;;5020251;28;20033;-67
2021/03/06 00:26:57;;;;;;;13.07;2.95;;;;;;;;;;5021181;28;20562;-67
2021/03/06 00:29:23;;;;;;;10.82;2.83;;;;;;;;;;5010612;28;20026;-67
2021/03/06 00:31:49;;;;;;;8.65;2.55;;;;;;;;;;5023039;28;20079;-67
2021/03/06 00:34:15;;;;;;;11.90;2.20;;;;;;;;;;5025663;28;20056;-67
2021/03/06 00:36:41;;;;;;;9.23;2.28;;;;;;;;;;5027250;28;20034;-67
2021/03/06 00:39:07;;;;;;;11.43;2.33;;;;;;;;;;5021176;28;20506;-67
2021/03/06 00:41:33;;;;;;;10.82;2.50;;;;;;;;;;5028275;28;20029;-67
2021/03/06 00:44:00;;;;;;;6.00;2.25;;;;;;;;;;5027510;28;20041;-67
2021/03/06 00:46:26;;;;;;;14.80;2.40;;;;;;;;;;5026833;28;20022;-67
2021/03/06 00:48:53;;;;;;;26.70;3.55;;;;;;;;;;5021314;28;20060;-67
2021/03/06 00:51:19;;;;;;;9.18;2.25;;;;;;;;;;5020446;28;20022;-67
2021/03/06 00:53:45;;;;;;;9.07;2.30;;;;;;;;;;5026449;28;20106;-68
2021/03/06 00:56:11;;;;;;;12.48;2.65;;;;;;;;;;5021200;28;20117;-67
2021/03/06 00:58:38;;;;;;;11.35;2.53;;;;;;;;;;5018734;28;20735;-66
2021/03/06 01:01:07;;;;;;;9.57;2.80;;;;;;;;;;5018586;28;20399;-67
2021/03/06 01:03:33;;;;;;;16.20;2.88;;;;;;;;;;5015067;28;20022;-67
2021/03/06 01:06:00;;;;;;;15.82;2.80;;;;;;;;;;5026787;28;20062;-67
2021/03/06 01:08:26;;;;;;;12.65;2.92;;;;;;;;;;5025874;28;20113;-67
2021/03/06 01:10:53;;;;;;;9.65;2.13;;;;;;;;;;5020108;28;20046;-67
2021/03/06 01:13:20;;;;;;;13.70;2.42;;;;;;;;;;5014935;28;20068;-67
2021/03/06 01:15:46;;;;;;;11.43;2.75;;;;;;;;;;5017318;28;20029;-67
2021/03/06 01:18:12;;;;;;;14.20;2.92;;;;;;;;;;5021729;28;20030;-67
2021/03/06 01:20:38;;;;;;;9.55;2.38;;;;;;;;;;5025693;28;20033;-67
2021/03/06 01:23:04;;;;;;;10.57;2.78;;;;;;;;;;5019373;28;20121;-67
2021/03/06 01:25:31;;;;;;;7.40;2.58;;;;;;;;;;5018153;28;20492;-67
2021/03/06 01:27:57;;;;;;;8.23;2.30;;;;;;;;;;5030484;28;20056;-67
2021/03/06 01:30:23;;;;;;;12.02;3.30;;;;;;;;;;5026275;28;20499;-67
2021/03/06 01:32:50;;;;;;;9.32;3.05;;;;;;;;;;5029198;28;20034;-67
2021/03/06 01:35:18;;;;;;;15.63;2.67;;;;;;;;;;5021780;28;20025;-67
2021/03/06 01:37:44;;;;;;;17.30;4.30;;;;;;;;;;5034978;28;20041;-67
2021/03/06 01:40:18;;;;;;;14.25;2.90;;;;;;;;;;5024402;28;20022;-67
2021/03/06 01:42:44;;;;;;;14.45;3.00;;;;;;;;;;5026199;28;20026;-67
2021/03/06 01:45:10;;;;;;;11.35;2.60;;;;;;;;;;5029933;28;20069;-67
2021/03/06 01:47:37;;;;;;;9.48;2.83;;;;;;;;;;5027357;28;20105;-67
2021/03/06 01:50:04;;;;;;;7.90;2.70;;;;;;;;;;5021668;28;20030;-67
2021/03/06 01:52:31;;;;;;;11.70;2.38;;;;;;;;;;5018180;28;20065;-67
2021/03/06 01:54:57;;;;;;;7.25;2.28;;;;;;;;;;5021353;28;20040;-67
2021/03/06 01:57:24;;;;;;;11.27;2.50;;;;;;;;;;5016860;28;20040;-68
2021/03/06 01:59:50;;;;;;;8.35;2.67;;;;;;;;;;5019061;28;20555;-67
2021/03/06 02:02:16;;;;;;;13.05;2.40;;;;;;;;;;5022443;28;20105;-67
2021/03/06 02:04:42;;;;;;;11.57;2.70;;;;;;;;;;5021067;28;20030;-67
2021/03/06 02:07:08;;;;;;;9.80;2.92;;;;;;;;;;5022170;28;20171;-67
2021/03/06 02:09:34;;;;;;;7.22;2.78;;;;;;;;;;5017146;28;20099;-67
2021/03/06 02:12:14;;;;;;;10.93;3.20;;;;;;;;;;5031275;28;20073;-67
2021/03/06 02:14:53;;;;;;;8.18;2.50;;;;;;;;;;5023934;28;20034;-67
2021/03/06 02:17:38;;;;;;;10.65;2.83;;;;;;;;;;5031762;28;20136;-67
2021/03/06 02:20:09;;;;;;;14.02;3.40;;;;;;;;;;5018450;28;20066;-67
2021/03/06 02:22:38;;;;;;;16.20;3.03;;;;;;;;;;5025671;28;20022;-67
2021/03/06 02:25:04;;;;;;;8.48;2.90;;;;;;;;;;5032094;28;20033;-67
2021/03/06 02:27:56;;;;;;;9.10;3.17;;;;;;;;;;5031926;28;20033;-67
2021/03/06 02:30:23;;;;;;;14.20;3.38;;;;;;;;;;5014574;28;20026;-67
2021/03/06 02:32:50;;;;;;;9.15;3.05;;;;;;;;;;5016758;28;20033;-67
2021/03/06 02:35:17;;;;;;;7.35;2.95;;;;;;;;;;5028907;28;20488;-67
2021/03/06 02:37:44;;;;;;;13.88;3.20;;;;;;;;;;5027897;28;20029;-67
2021/03/06 02:40:12;;;;;;;12.45;3.17;;;;;;;;;;5028490;28;20029;-67
2021/03/06 02:42:39;;;;;;;11.20;3.75;;;;;;;;;;5031877;28;20112;-67
2021/03/06 02:45:06;;;;;;;15.90;4.32;;;;;;;;;;5024072;28;20224;-67
2021/03/06 02:47:32;;;;;;;13.13;4.18;;;;;;;;;;5022739;28;20026;-67
2021/03/06 02:49:59;;;;;;;15.90;5.55;;;;;;;;;;5022961;28;20017;-67
2021/03/06 02:52:25;;;;;;;16.80;4.70;;;;;;;;;;5023395;28;20033;-67
2021/03/06 02:54:51;;;;;;;14.52;5.40;;;;;;;;;;5023814;28;20052;-67
2021/03/06 02:57:22;;;;;;;16.92;5.13;;;;;;;;;;5031291;28;20079;-67
2021/03/06 02:59:54;;;;;;;13.02;4.95;;;;;;;;;;5024026;28;20478;-67
2021/03/06 03:02:26;;;;;;;22.25;5.35;;;;;;;;;;5018730;28;20045;-66
2021/03/06 03:04:52;;;;;;;;;;;;;;;;;;5036415;28;20023;-67
2021/03/06 03:07:22;;;;;;;11.25;4.22;;;;;;;;;;5024744;28;19916;-67
2021/03/06 03:09:51;;;;;;;13.07;5.20;;;;;;;;;;5024867;28;20045;-67
2021/03/06 03:12:22;;;;;;;12.00;4.50;;;;;;;;;;5024535;28;20114;-67
2021/03/06 03:15:03;;;;;;;9.77;4.43;;;;;;;;;;5027451;28;20026;-67
2021/03/06 03:17:49;;;;;;;13.82;4.82;;;;;;;;;;5014915;28;20037;-67
2021/03/06 03:20:22;;;;;;;10.18;4.68;;;;;;;;;;5025138;28;20025;-67
2021/03/06 03:22:50;;;;;;;9.48;4.35;;;;;;;;;;5012323;28;20022;-67
2021/03/06 03:25:17;;;;;;;10.88;4.65;;;;;;;;;;5022846;28;20021;-67
2021/03/06 03:27:44;;;;;;;14.00;4.38;;;;;;;;;;5022899;28;20037;-67
2021/03/06 03:30:15;;;;;;;12.05;4.75;;;;;;;;;;5022407;28;20037;-67
2021/03/06 03:32:45;;;;;;;12.15;4.82;;;;;;;;;;5028791;28;20036;-67
2021/03/06 03:35:11;;;;;;;13.00;4.70;;;;;;;;;;5030477;28;20037;-67
2021/03/06 03:37:38;;;;;;;14.82;5.05;;;;;;;;;;5030352;28;20017;-67
2021/03/06 03:40:05;;;;;;;14.13;4.57;;;;;;;;;;5021485;28;20102;-67
2021/03/06 03:42:31;;;;;;;15.95;5.53;;;;;;;;;;5028925;28;20025;-67
2021/03/06 03:44:57;;;;;;;11.10;5.85;;;;;;;;;;5015417;28;20048;-66
2021/03/06 03:47:24;;;;;;;11.38;4.53;;;;;;;;;;5021482;28;20025;-67
2021/03/06 03:49:50;;;;;;;26.05;5.40;;;;;;;;;;5015258;28;20025;-67
2021/03/06 03:52:16;;;;;;;14.60;5.25;;;;;;;;;;5027548;28;20602;-67
2021/03/06 03:54:43;;;;;;;12.82;5.60;;;;;;;;;;5020523;28;20500;-67
2021/03/06 03:57:09;;;;;;;9.05;4.97;;;;;;;;;;5021314;28;20551;-67
2021/03/06 03:59:35;;;;;;;9.77;4.88;;;;;;;;;;5027674;28;20033;-67
2021/03/06 04:02:01;;;;;;;9.95;4.97;;;;;;;;;;5026904;28;20105;-67
2021/03/06 04:04:28;;;;;;;12.82;5.78;;;;;;;;;;5027371;28;20030;-67
2021/03/06 04:06:54;;;;;;;12.52;6.30;;;;;;;;;;5040872;28;20021;-67
2021/03/06 04:09:20;;;;;;;11.30;5.30;;;;;;;;;;5028613;28;20048;-67
2021/03/06 04:11:46;;;;;;;12.02;5.38;;;;;;;;;;5012915;28;20033;-67
2021/03/06 04:14:12;;;;;;;10.05;5.30;;;;;;;;;;5026844;28;20041;-67
2021/03/06 04:16:38;;;;;;;9.93;5.13;;;;;;;;;;5009810;28;20034;-67
2021/03/06 04:19:05;;;;;;;15.45;5.93;;;;;;;;;;5018538;28;20053;-67
2021/03/06 04:21:31;;;;;;;9.90;5.88;;;;;;;;;;5017645;28;20041;-67
2021/03/06 04:23:57;;;;;;;16.48;5.47;;;;;;;;;;5020911;28;20014;-67
2021/03/06 04:26:24;;;;;;;10.15;5.53;;;;;;;;;;5030126;28;20038;-67
2021/03/06 04:28:50;;;;;;;13.30;7.15;;;;;;;;;;5016344;28;20100;-67
2021/03/06 04:31:16;;;;;;;11.65;5.05;;;;;;;;;;5030268;28;20100;-67
2021/03/06 04:33:42;;;;;;;15.02;5.15;;;;;;;;;;5019114;28;20017;-67
2021/03/06 04:36:08;;;;;;;10.75;4.97;;;;;;;;;;5032063;28;20034;-68
2021/03/06 04:38:34;;;;;;;11.75;4.75;;;;;;;;;;5020079;28;20029;-68
2021/03/06 04:41:00;;;;;;;10.13;5.15;;;;;;;;;;5022755;28;20097;-68
2021/03/06 04:43:27;;;;;;;15.20;5.82;;;;;;;;;;5034849;28;20022;-68
2021/03/06 04:45:53;;;;;;;7.85;4.55;;;;;;;;;;5028755;28;20046;-68
2021/03/06 04:48:19;;;;;;;8.80;4.70;;;;;;;;;;5013576;28;20033;-68
2021/03/06 04:50:46;;;;;;;14.32;5.00;;;;;;;;;;5016459;28;20484;-68
2021/03/06 04:53:12;;;;;;;10.57;4.68;;;;;;;;;;5031220;28;20107;-68
2021/03/06 04:55:38;;;;;;;11.55;5.13;;;;;;;;;;5030054;28;20034;-68
2021/03/06 04:58:04;;;;;;;16.90;5.10;;;;;;;;;;5015194;28;20033;-69
2021/03/06 05:00:31;;;;;;;9.70;5.00;;;;;;;;;;5027184;28;20029;-69
2021/03/06 05:02:57;;;;;;;10.90;5.88;;;;;;;;;;5029694;28;20583;-69
2021/03/06 05:05:24;;;;;;;12.57;5.78;;;;;;;;;;5018012;28;20022;-69
2021/03/06 05:07:50;;;;;;;13.05;5.05;;;;;;;;;;5026591;28;20116;-69
2021/03/06 05:10:16;;;;;;;9.75;5.07;;;;;;;;;;5024103;28;20060;-69
2021/03/06 05:12:42;;;;;;;14.02;5.55;;;;;;;;;;5020693;28;20032;-70
2021/03/06 05:15:08;;;;;;;11.30;5.40;;;;;;;;;;5026117;28;20028;-69
2021/03/06 05:17:34;;;;;;;11.45;5.35;;;;;;;;;;5042975;28;20026;-70
2021/03/06 05:20:00;;;;;;;10.65;5.28;;;;;;;;;;5032590;28;20091;-70
2021/03/06 05:22:27;;;;;;;13.35;5.45;;;;;;;;;;5027557;28;20428;-70
2021/03/06 05:24:53;;;;;;;8.50;5.03;;;;;;;;;;5023032;28;20022;-70
2021/03/06 05:27:19;;;;;;;9.77;5.20;;;;;;;;;;5022457;28;20104;-70
2021/03/06 05:29:45;;;;;;;11.50;4.75;;;;;;;;;;5030378;28;20488;-70
2021/03/06 05:32:11;;;;;;;13.60;4.57;;;;;;;;;;5016479;28;20026;-70
2021/03/06 05:34:37;;;;;;;14.50;5.60;;;;;;;;;;5028360;28;20065;-70
2021/03/06 05:37:03;;;;;;;14.00;5.18;;;;;;;;;;5050876;28;20024;-70
2021/03/06 05:39:30;;;;;;;12.70;5.38;;;;;;;;;;5030901;28;20480;-70
2021/03/06 05:41:56;;;;;;;8.88;4.68;;;;;;;;;;5029389;28;20014;-70
2021/03/06 05:44:22;;;;;;;8.43;4.90;;;;;;;;;;5030539;28;20025;-70
2021/03/06 05:46:49;;;;;;;14.63;4.82;;;;;;;;;;5024138;28;20036;-70
2021/03/06 05:49:15;;;;;;;12.48;5.43;;;;;;;;;;5031123;28;20049;-70
2021/03/06 05:51:42;;;;;;;15.85;5.72;;;;;;;;;;5029295;28;20744;-70
2021/03/06 05:54:12;;;;;;;12.10;5.85;;;;;;;;;;5028632;28;20033;-70
2021/03/06 05:56:39;;;;;;;12.30;5.35;;;;;;;;;;5026614;28;20611;-70
2021/03/06 05:59:07;;;;;;;10.65;4.85;;;;;;;;;;5016336;28;20026;-70
2021/03/06 06:01:34;;;;;;;9.40;4.80;;;;;;;;;;5022201;28;20066;-70
2021/03/06 06:04:03;;;;;;;11.80;5.13;;;;;;;;;;5020743;28;20110;-70
2021/03/06 06:06:30;;;;;;;13.45;5.85;;;;;;;;;;5029834;28;20128;-71
2021/03/06 06:08:58;;;;;;;11.63;5.72;;;;;;;;;;5017875;28;20030;-70
2021/03/06 06:11:25;;;;;;;10.27;4.95;;;;;;;;;;5019197;28;20033;-70
2021/03/06 06:13:51;;;;;;;12.90;5.13;;;;;;;;;;5022647;28;20095;-70
2021/03/06 06:16:17;;;;;;;9.27;5.25;;;;;;;;;;5017779;28;20049;-70
2021/03/06 06:18:44;;;;;;;11.35;4.95;;;;;;;;;;5019427;28;20404;-70
2021/03/06 06:21:29;;;;;;;12.65;4.97;;;;;;;;;;5017414;28;20029;-70
2021/03/06 06:24:05;;;;;;;17.13;6.40;;;;;;;;;;5032152;28;20026;-71
2021/03/06 06:26:31;;;;;;;17.33;5.55;;;;;;;;;;5017998;28;20040;-70
2021/03/06 06:28:57;;;;;;;11.55;4.95;;;;;;;;;;5028537;28;20116;-70
2021/03/06 06:31:24;;;;;;;10.75;4.78;;;;;;;;;;5019169;28;20022;-70
2021/03/06 06:33:52;;;;;;;12.50;5.32;;;;;;;;;;5023582;28;20500;-70
2021/03/06 06:36:38;;;;;;;12.48;5.15;;;;;;;;;;5031469;28;20132;-70
2021/03/06 06:39:05;;;;;;;15.35;5.75;;;;;;;;;;5034116;28;20033;-70
2021/03/06 06:41:50;;;;;;;12.55;5.10;;;;;;;;;;5027696;28;20050;-70
2021/03/06 06:44:16;;;;;;;11.60;5.15;;;;;;;;;;5023157;28;20033;-70
2021/03/06 06:46:43;;;;;;;13.18;5.30;;;;;;;;;;5031739;28;20103;-70
2021/03/06 06:49:09;;;;;;;13.35;5.32;;;;;;;;;;5023056;28;20057;-70
2021/03/06 06:51:35;;;;;;;16.40;5.95;;;;;;;;;;5023705;28;20021;-70
2021/03/06 06:54:14;;;;;;;16.55;6.45;;;;;;;;;;5021688;28;20041;-69
2021/03/06 06:56:40;;;;;;;10.07;5.53;;;;;;;;;;5022265;28;20117;-69
2021/03/06 06:59:11;;;;;;;13.50;5.57;;;;;;;;;;5030298;28;20018;-69
2021/03/06 07:01:37;;;;;;;12.38;5.45;;;;;;;;;;5021206;28;20061;-69
2021/03/06 07:04:10;;;;;;;11.55;6.15;;;;;;;;;;5023918;28;20038;-70
2021/03/06 07:06:37;;;;;;;14.68;5.88;;;;;;;;;;5025218;28;20033;-70
2021/03/06 07:09:09;;;;;;;17.42;6.25;;;;;;;;;;5029119;28;20410;-69
2021/03/06 07:11:36;;;;;;;22.13;7.60;;;;;;;;;;5024116;28;20438;-70
2021/03/06 07:14:02;;;;;;;21.50;8.02;;;;;;;;;;5017437;28;20044;-70
2021/03/06 07:16:48;;;;;;;21.10;8.80;;;;;;;;;;5025518;28;20034;-69
2021/03/06 07:19:14;;;;;;;21.58;8.63;;;;;;;;;;5013429;28;20034;-69
2021/03/06 07:21:47;;;;;;;18.67;8.25;;;;;;;;;;5019021;28;20026;-69
2021/03/06 07:24:14;;;;;;;12.07;6.40;;;;;;;;;;5022948;28;20052;-68
2021/03/06 07:26:40;;;;;;;15.60;7.88;;;;;;;;;;5021123;28;20025;-68
2021/03/06 07:29:06;;;;;;;21.48;7.47;;;;;;;;;;5015065;28;20037;-68
2021/03/06 07:31:33;;;;;;;23.45;7.85;;;;;;;;;;5025712;28;20446;-68
2021/03/06 07:34:00;;;;;;;19.95;7.13;;;;;;;;;;5024320;28;20017;-68
2021/03/06 07:36:26;;;;;;;21.08;6.35;;;;;;;;;;5020683;28;20120;-68
2021/03/06 07:38:52;;;;;;;18.80;5.50;;;;;;;;;;5025803;28;20044;-68
2021/03/06 07:41:21;;;;;;;17.48;5.65;;;;;;;;;;5019022;28;20030;-68
2021/03/06 07:43:48;;;;;;;19.27;7.88;;;;;;;;;;5015159;28;20028;-67
2021/03/06 07:46:16;;;;;;;14.98;4.75;;;;;;;;;;5024957;28;20116;-67
2021/03/06 07:48:43;;;;;;;19.73;7.95;;;;;;;;;;5020746;28;20026;-67
2021/03/06 07:51:09;;;;;;;21.80;7.30;;;;;;;;;;5025532;28;20033;-67
2021/03/06 07:53:36;;;;;;;14.60;5.20;;;;;;;;;;5023607;28;20029;-67
2021/03/06 07:56:06;;;;;;;17.38;6.40;;;;;;;;;;5025476;28;20024;-67
2021/03/06 07:58:48;;;;;;;14.68;4.63;;;;;;;;;;5026419;28;20032;-67
2021/03/06 08:01:24;;;;;;;12.70;4.18;;;;;;;;;;5030016;28;20100;-67
2021/03/06 08:03:50;;;;;;;15.52;5.40;;;;;;;;;;5017029;28;20137;-66
2021/03/06 08:06:17;;;;;;;10.27;2.88;;;;;;;;;;5019817;28;20070;-67
2021/03/06 08:08:43;;;;;;;13.18;3.10;;;;;;;;;;5019436;28;20030;-67
2021/03/06 08:11:11;;;;;;;10.15;2.80;;;;;;;;;;5025803;28;20435;-67
2021/03/06 08:13:48;;;;;;;9.23;2.65;;;;;;;;;;5017085;28;20105;-66
2021/03/06 08:16:23;;;;;;;11.55;2.92;;;;;;;;;;5025395;28;20056;-66
2021/03/06 08:18:53;;;;;;;9.90;2.80;;;;;;;;;;5011591;28;20199;-67
2021/03/06 08:21:34;;;;;;;7.07;2.15;;;;;;;;;;5025839;28;20021;-67
2021/03/06 08:26:41;;;;;;;12.00;2.88;;;;;;;;;;5018953;28;20084;-67
2021/03/06 08:29:23;;;;;;;8.75;2.40;;;;;;;;;;5027729;28;20041;-67
2021/03/06 08:31:58;;;;;;;12.82;2.30;;;;;;;;;;5030255;28;20099;-66
2021/03/06 08:34:28;;;;;;;9.00;2.50;;;;;;;;;;5024416;28;20044;-66
2021/03/06 08:37:21;;;;;;;8.75;2.20;;;;;;;;;;5028659;28;21816;-66
2021/03/06 08:39:51;;;;;;;10.02;2.72;;;;;;;;;;5020163;28;20124;-66
2021/03/06 08:42:18;;;;;;;10.35;2.42;;;;;;;;;;5020004;28;20020;-67
2021/03/06 08:44:44;;;;;;;13.18;2.78;;;;;;;;;;5020648;28;20067;-66
2021/03/06 08:47:10;;;;;;;14.82;4.00;;;;;;;;;;5018603;28;20422;-67
2021/03/06 08:49:37;;;;;;;10.18;2.58;;;;;;;;;;5016987;28;20025;-67
2021/03/06 08:52:03;;;;;;;13.50;3.22;;;;;;;;;;5022981;28;20033;-67
2021/03/06 08:54:37;;;;;;;18.38;2.63;;;;;;;;;;5026815;28;20029;-67
2021/03/06 08:57:03;;;;;;;11.02;2.47;;;;;;;;;;5031684;28;20029;-67
2021/03/06 08:59:39;;;;;;;11.80;3.20;;;;;;;;;;5020013;28;20044;-67
2021/03/06 09:02:34;;;;;;;15.52;3.15;;;;;;;;;;5027487;28;20017;-67
2021/03/06 09:05:02;;;;;;;10.38;3.70;;;;;;;;;;5018689;28;20035;-67
2021/03/06 09:07:41;;;;;;;4.38;1.77;;;;;;;;;;5028246;28;20045;-67
2021/03/06 09:10:13;;;;;;;10.75;2.92;;;;;;;;;;5029270;28;20124;-67
2021/03/06 09:12:40;;;;;;;11.13;3.08;;;;;;;;;;5026495;28;20033;-67
2021/03/06 09:15:07;;;;;;;12.98;2.42;;;;;;;;;;5029878;28;20418;-67
2021/03/06 09:17:33;;;;;;;8.63;2.60;;;;;;;;;;5019061;28;20025;-67
2021/03/06 09:20:06;;;;;;;9.10;2.60;;;;;;;;;;5027616;28;20120;-67
2021/03/06 09:22:45;;;;;;;10.75;2.83;;;;;;;;;;5025848;28;20487;-67
2021/03/06 09:25:12;;;;;;;12.05;3.88;;;;;;;;;;5028772;28;20061;-67
2021/03/06 09:27:45;;;;;;;12.07;2.28;;;;;;;;;;5021273;28;20050;-67
2021/03/06 09:30:24;;;;;;;9.45;2.40;;;;;;;;;;5014171;28;20095;-67
2021/03/06 09:32:50;;;;;;;11.07;2.60;;;;;;;;;;5024269;28;20018;-68
2021/03/06 09:35:17;;;;;;;17.17;2.88;;;;;;;;;;5020433;28;20083;-67
2021/03/06 09:37:43;;;;;;;13.93;2.85;;;;;;;;;;5019625;28;20487;-67
2021/03/06 09:40:19;;;;;;;10.57;2.50;;;;;;;;;;5022403;28;20025;-67
2021/03/06 09:42:45;;;;;;;13.05;2.08;;;;;;;;;;5021114;28;20044;-67
2021/03/06 09:45:11;;;;;;;11.60;2.58;;;;;;;;;;5017424;28;20025;-68
2021/03/06 09:47:37;;;;;;;11.88;2.55;;;;;;;;;;5016538;28;20434;-67
2021/03/06 09:50:04;;;;;;;9.95;2.35;;;;;;;;;;5018982;28;20067;-67
2021/03/06 09:52:33;;;;;;;9.55;2.35;;;;;;;;;;5023903;28;20025;-67
2021/03/06 09:55:00;;;;;;;11.75;1.83;;;;;;;;;;5016925;28;20400;-67
2021/03/06 09:57:26;;;;;;;8.23;2.15;;;;;;;;;;5021271;28;20038;-67
2021/03/06 09:59:52;;;;;;;10.40;2.45;;;;;;;;;;5019092;28;20112;-67
2021/03/06 10:02:23;;;;;;;7.72;2.10;;;;;;;;;;5019236;28;20021;-68
2021/03/06 10:04:50;;;;;;;11.93;2.00;;;;;;;;;;5020559;28;20021;-67
2021/03/06 10:07:16;;;;;;;8.00;1.70;;;;;;;;;;5017601;28;20036;-67
2021/03/06 10:09:42;;;;;;;8.32;2.03;;;;;;;;;;5013348;28;20111;-67
2021/03/06 10:12:15;;;;;;;8.48;1.85;;;;;;;;;;5021186;28;20022;-67
2021/03/06 10:14:41;;;;;;;6.57;1.13;;;;;;;;;;5019121;28;20492;-67
2021/03/06 10:17:08;;;;;;;7.07;1.27;;;;;;;;;;5015915;28;20061;-67
2021/03/06 10:19:47;;;;;;;5.90;1.02;;;;;;;;;;5014715;28;20066;-67
2021/03/06 10:22:14;;;;;;;8.65;1.50;;;;;;;;;;5019555;28;20495;-67
2021/03/06 10:25:03;;;;;;;13.65;2.70;;;;;;;;;;5017873;28;20025;-68
2021/03/06 10:27:34;;;;;;;10.05;1.65;;;;;;;;;;5018241;28;20086;-67
2021/03/06 10:30:18;;;;;;;7.75;2.33;;;;;;;;;;5014771;28;20075;-67
2021/03/06 10:32:44;;;;;;;8.88;2.00;;;;;;;;;;5017239;28;20083;-67
2021/03/06 10:35:29;;;;;;;9.57;1.75;;;;;;;;;;5015825;28;20113;-67
2021/03/06 10:37:55;;;;;;;6.95;1.88;;;;;;;;;;5022264;28;20037;-67
2021/03/06 10:40:39;;;;;;;8.60;1.75;;;;;;;;;;5016822;28;20060;-67
2021/03/06 10:43:05;;;;;;;12.15;1.60;;;;;;;;;;5022415;28;20029;-67
2021/03/06 10:45:31;;;;;;;5.85;0.93;;;;;;;;;;5021422;28;20057;-67
2021/03/06 10:47:58;;;;;;;8.02;1.75;;;;;;;;;;5019346;28;20044;-68
2021/03/06 10:50:32;;;;;;;8.02;1.73;;;;;;;;;;5018997;28;20550;-68
2021/03/06 10:53:14;;;;;;;7.15;1.05;;;;;;;;;;5017411;28;20119;-67
2021/03/06 10:55:40;;;;;;;;;;;;;;;;;;5017870;28;20041;-68
2021/03/06 10:58:06;;;;;;;5.15;1.50;;;;;;;;;;5021220;28;20366;-68
2021/03/06 11:00:33;;;;;;;7.43;0.70;;;;;;;;;;5012931;28;20018;-68
2021/03/06 11:03:00;;;;;;;4.63;0.95;;;;;;;;;;5021403;28;20471;-67
2021/03/06 11:05:26;;;;;;;7.30;0.80;;;;;;;;;;5024965;28;20025;-67
2021/03/06 11:07:53;;;;;;;6.78;1.02;;;;;;;;;;5013265;28;20026;-67
2021/03/06 11:10:20;;;;;;;6.78;1.10;;;;;;;;;;5018657;28;20065;-67
2021/03/06 11:12:52;;;;;;;6.93;1.13;;;;;;;;;;5027706;28;20166;-68
2021/03/06 11:15:18;;;;;;;;;;;;;;;;;;5023974;28;20558;-67
2021/03/06 11:17:48;;;;;;;5.13;1.05;;;;;;;;;;5023966;28;19991;-68
2021/03/06 11:20:16;;;;;;;10.18;1.48;;;;;;;;;;5017149;28;20040;-68
2021/03/06 11:22:42;;;;;;;5.97;1.67;;;;;;;;;;5013208;28;20029;-67
2021/03/06 11:25:10;;;;;;;9.70;2.28;;;;;;;;;;5019997;28;20042;-67
2021/03/06 11:27:46;;;;;;;5.65;1.55;;;;;;;;;;5018045;28;20582;-68
2021/03/06 11:30:12;;;;;;;4.75;1.40;;;;;;;;;;5017132;28;20029;-67
2021/03/06 11:32:39;;;;;;;8.90;2.80;;;;;;;;;;5020585;28;20488;-67
2021/03/06 11:35:06;;;;;;;7.35;1.40;;;;;;;;;;5015918;28;20579;-67
2021/03/06 11:37:32;;;;;;;7.90;1.55;;;;;;;;;;5019114;28;20025;-67
2021/03/06 11:39:58;;;;;;;6.63;1.50;;;;;;;;;;5019158;28;20032;-67
2021/03/06 11:42:24;;;;;;;9.10;1.23;;;;;;;;;;5014371;28;20109;-67
2021/03/06 11:44:50;;;;;;;8.38;1.50;;;;;;;;;;5014908;28;20048;-67
2021/03/06 11:47:16;;;;;;;9.45;2.45;;;;;;;;;;5022431;28;20536;-68
2021/03/06 11:49:42;;;;;;;6.95;1.58;;;;;;;;;;5020840;28;20026;-68
2021/03/06 11:52:08;;;;;;;9.13;2.17;;;;;;;;;;5022250;28;20041;-67
2021/03/06 11:54:35;;;;;;;7.88;1.75;;;;;;;;;;5020498;28;20116;-67
2021/03/06 11:57:01;;;;;;;6.57;2.13;;;;;;;;;;5019531;28;20025;-67
2021/03/06 11:59:27;;;;;;;4.75;1.13;;;;;;;;;;5010660;28;20033;-67
2021/03/06 12:01:53;;;;;;;7.72;2.03;;;;;;;;;;5017536;28;20033;-67
2021/03/06 12:04:19;;;;;;;8.70;2.55;;;;;;;;;;5018819;28;20048;-68
2021/03/06 12:06:45;;;;;;;10.05;2.15;;;;;;;;;;5018724;28;20037;-67
2021/03/06 12:09:11;;;;;;;10.27;1.70;;;;;;;;;;5012646;28;20502;-69
2021/03/06 12:11:37;;;;;;;6.30;2.05;;;;;;;;;;5017774;28;20049;-72
2021/03/06 12:14:03;;;;;;;8.80;1.52;;;;;;;;;;5022318;28;20032;-67
2021/03/06 12:16:29;;;;;;;13.65;3.35;;;;;;;;;;5018787;28;20030;-67
2021/03/06 12:18:55;;;;;;;6.25;1.30;;;;;;;;;;5018339;28;20148;-68
2021/03/06 12:21:21;;;;;;;5.53;1.90;;;;;;;;;;5018392;28;20017;-68
2021/03/06 12:23:47;;;;;;;6.90;1.77;;;;;;;;;;5015107;28;20029;-67
2021/03/06 12:26:14;;;;;;;9.60;2.13;;;;;;;;;;5022739;28;20612;-67
2021/03/06 12:28:40;;;;;;;6.82;2.50;;;;;;;;;;5012097;28;20152;-68
2021/03/06 12:31:06;;;;;;;5.35;2.40;;;;;;;;;;5018265;28;20109;-67
2021/03/06 12:33:32;;;;;;;8.68;3.90;;;;;;;;;;5014143;28;20029;-67
2021/03/06 12:35:58;;;;;;;10.30;3.75;;;;;;;;;;5015454;28;20145;-68
2021/03/06 12:38:24;;;;;;;13.05;3.45;;;;;;;;;;5015161;28;20916;-68
2021/03/06 12:40:50;;;;;;;7.95;4.20;;;;;;;;;;5017864;28;20156;-68
2021/03/06 12:43:16;;;;;;;11.85;3.00;;;;;;;;;;5025290;28;20116;-67
2021/03/06 12:45:42;;;;;;;8.50;3.60;;;;;;;;;;5024420;28;20029;-67
2021/03/06 12:48:08;;;;;;;11.25;2.90;;;;;;;;;;5018626;28;20048;-67
2021/03/06 12:50:34;;;;;;;9.57;4.25;;;;;;;;;;5018816;28;20083;-67
2021/03/06 12:53:00;;;;;;;15.55;4.55;;;;;;;;;;5019320;28;20034;-67
2021/03/06 12:55:26;;;;;;;14.60;4.38;;;;;;;;;;5021571;28;20033;-67
2021/03/06 12:57:52;;;;;;;13.02;4.60;;;;;;;;;;5020343;28;20438;-67
2021/03/06 13:00:19;;;;;;;10.25;3.33;;;;;;;;;;5019212;28;20480;-68
2021/03/06 13:02:45;;;;;;;10.50;3.90;;;;;;;;;;5020836;28;20038;-67
2021/03/06 13:05:11;;;;;;;13.13;4.40;;;;;;;;;;5020112;28;20029;-67
2021/03/06 13:07:37;;;;;;;13.68;4.60;;;;;;;;;;5016342;28;20048;-68
2021/03/06 13:10:04;;;;;;;11.63;4.75;;;;;;;;;;5020120;28;20474;-67
2021/03/06 13:12:30;;;;;;;12.93;5.22;;;;;;;;;;5025053;28;20537;-68
2021/03/06 13:14:56;;;;;;;11.38;5.15;;;;;;;;;;5022037;28;20030;-68
2021/03/06 13:17:22;;;;;;;13.63;5.45;;;;;;;;;;5023767;28;20038;-67
2021/03/06 13:19:48;;;;;;;12.70;6.45;;;;;;;;;;5019684;28;20088;-68
2021/03/06 13:22:14;;;;;;;15.55;5.47;;;;;;;;;;5019584;28;21525;-68
2021/03/06 13:24:40;;;;;;;12.90;3.10;;;;;;;;;;5026261;28;20467;-67
2021/03/06 13:27:06;;;;;;;12.45;3.22;;;;;;;;;;5030000;28;20026;-67
2021/03/06 13:29:33;;;;;;;10.40;3.45;;;;;;;;;;5021452;28;20112;-68
2021/03/06 13:31:59;;;;;;;11.65;3.60;;;;;;;;;;5027327;28;20116;-68
2021/03/06 13:34:25;;;;;;;13.25;3.13;;;;;;;;;;5023443;28;20108;-69
2021/03/06 13:36:51;;;;;;;10.98;3.20;;;;;;;;;;5024306;28;20082;-69
2021/03/06 13:39:17;;;;;;;6.00;2.88;;;;;;;;;;5019484;28;20025;-68
2021/03/06 13:41:43;;;;;;;11.38;3.47;;;;;;;;;;5028858;28;20025;-68
2021/03/06 13:44:09;;;;;;;8.32;3.97;;;;;;;;;;5029681;28;20036;-67
2021/03/06 13:46:36;;;;;;;8.23;3.00;;;;;;;;;;5023554;28;20025;-67
2021/03/06 13:49:03;;;;;;;12.07;4.03;;;;;;;;;;5018653;28;20034;-67
2021/03/06 13:51:31;;;;;;;11.70;4.35;;;;;;;;;;5020491;28;20038;-67
2021/03/06 13:53:58;;;;;;;12.10;4.43;;;;;;;;;;5028262;28;20105;-67
2021/03/06 13:56:24;;;;;;;15.65;4.63;;;;;;;;;;5024241;28;20036;-67
2021/03/06 13:58:50;;;;;;;13.45;5.30;;;;;;;;;;5027250;28;20105;-67
2021/03/06 14:01:16;;;;;;;12.75;4.43;;;;;;;;;;5024506;28;20238;-67
2021/03/06 14:03:42;;;;;;;13.48;5.60;;;;;;;;;;5027323;28;20511;-68
2021/03/06 14:06:08;;;;;;;14.30;5.82;;;;;;;;;;5018440;28;20030;-67
2021/03/06 14:08:34;;;;;;;14.63;6.13;;;;;;;;;;5034653;28;20131;-68
2021/03/06 14:11:01;;;;;;;15.07;5.90;;;;;;;;;;5023983;28;20053;-68
2021/03/06 14:13:27;;;;;;;12.77;5.10;;;;;;;;;;5026577;28;20034;-67
2021/03/06 14:15:53;;;;;;;15.02;4.72;;;;;;;;;;5023566;28;20025;-67
2021/03/06 14:18:19;;;;;;;10.13;3.95;;;;;;;;;;5029649;28;20026;-68
2021/03/06 14:20:45;;;;;;;9.95;3.75;;;;;;;;;;5024758;28;20105;-67
2021/03/06 14:23:11;;;;;;;14.77;4.78;;;;;;;;;;5026031;28;20026;-68
2021/03/06 14:25:37;;;;;;;12.68;3.50;;;;;;;;;;5027194;28;20022;-68
2021/03/06 14:28:03;;;;;;;10.00;3.70;;;;;;;;;;5024942;28;20023;-68
2021/03/06 14:30:30;;;;;;;9.10;3.70;;;;;;;;;;5020333;28;20041;-68
2021/03/06 14:32:56;;;;;;;9.10;3.25;;;;;;;;;;5020675;28;20011;-68
2021/03/06 14:35:22;;;;;;;11.52;3.95;;;;;;;;;;5019950;28;20526;-68
2021/03/06 14:37:48;;;;;;;7.25;2.67;;;;;;;;;;5019527;28;20037;-68
2021/03/06 14:40:14;;;;;;;22.35;5.85;;;;;;;;;;5018019;28;20030;-68
2021/03/06 14:42:43;;;;;;;10.68;3.53;;;;;;;;;;5028142;28;20030;-68